createdAt,value
2022-12-15T00:00:45.848Z,8.65
2022-12-15T00:03:34.598Z,8.10
2022-12-15T00:06:21.342Z,8.55
2022-12-15T00:09:12.641Z,7.30
2022-12-15T00:11:55.307Z,8.18
2022-12-15T00:14:42.178Z,7.78
2022-12-15T00:17:28.528Z,7.53
2022-12-15T00:20:14.928Z,7.33
2022-12-15T00:23:01.024Z,8.20
2022-12-15T00:25:47.107Z,7.30
2022-12-15T00:28:33.411Z,7.53
2022-12-15T00:31:19.586Z,7.15
2022-12-15T00:34:05.637Z,7.95
2022-12-15T00:36:52.543Z,7.30
2022-12-15T00:39:20.330Z,7.35
2022-12-15T00:41:47.819Z,8.15
2022-12-15T00:44:20.395Z,7.42
2022-12-15T00:46:53.929Z,7.42
2022-12-15T00:49:43.505Z,7.95
2022-12-15T00:52:30.526Z,7.62
2022-12-15T00:55:16.807Z,7.70
2022-12-15T00:58:03.020Z,7.30
2022-12-15T01:00:49.964Z,7.87
2022-12-15T01:03:40.535Z,7.33
2022-12-15T01:06:33.057Z,7.45
2022-12-15T01:09:20.664Z,7.47
2022-12-15T01:12:06.823Z,7.12
2022-12-15T01:14:53.662Z,9.60
2022-12-15T01:17:41.307Z,8.15
2022-12-15T01:20:18.786Z,7.87
2022-12-15T01:22:49.713Z,7.78
2022-12-15T01:25:19.629Z,7.65
2022-12-15T01:27:47.537Z,7.87
2022-12-15T01:30:19.012Z,8.38
2022-12-15T01:32:46.850Z,9.15
2022-12-15T01:35:15.517Z,8.35
2022-12-15T01:37:44.097Z,8.10
2022-12-15T01:40:34.853Z,7.85
2022-12-15T01:43:02.816Z,7.80
2022-12-15T01:45:35.859Z,7.50
2022-12-15T01:48:10.737Z,7.47
2022-12-15T01:50:46.519Z,8.20
2022-12-15T01:53:15.648Z,7.12
2022-12-15T01:55:45.871Z,7.83
2022-12-15T01:58:18.737Z,7.40
2022-12-15T02:00:46.230Z,7.15
2022-12-15T02:03:14.402Z,7.33
2022-12-15T02:05:42.569Z,7.12
2022-12-15T02:08:11.070Z,7.35
2022-12-15T02:10:53.379Z,7.33
2022-12-15T02:13:38.428Z,7.75
2022-12-15T02:16:26.627Z,7.25
2022-12-15T02:19:18.124Z,7.55
2022-12-15T02:22:09.772Z,7.58
2022-12-15T02:25:04.422Z,7.53
2022-12-15T02:28:06.578Z,8.75
2022-12-15T02:31:22.092Z,8.75
2022-12-15T02:34:06.172Z,8.20
2022-12-15T02:36:45.013Z,8.78
2022-12-15T02:39:17.726Z,9.75
2022-12-15T02:41:48.640Z,9.70
2022-12-15T02:44:22.157Z,10.32
2022-12-15T02:47:23.048Z,10.05
2022-12-15T02:50:13.082Z,10.48
2022-12-15T02:53:00.998Z,9.63
2022-12-15T02:55:52.579Z,9.38
2022-12-15T02:58:45.652Z,8.38
2022-12-15T03:01:27.465Z,8.90
2022-12-15T03:03:57.045Z,8.95
2022-12-15T03:06:27.880Z,8.73
2022-12-15T03:08:55.641Z,9.00
2022-12-15T03:11:23.671Z,8.48
2022-12-15T03:13:52.692Z,8.83
2022-12-15T03:16:21.369Z,9.35
2022-12-15T03:18:51.173Z,8.63
2022-12-15T03:21:18.922Z,7.67
2022-12-15T03:23:46.601Z,8.70
2022-12-15T03:26:14.390Z,8.50
2022-12-15T03:28:42.195Z,8.28
2022-12-15T03:31:10.067Z,8.85
2022-12-15T03:33:37.808Z,9.08
2022-12-15T03:36:06.167Z,9.75
2022-12-15T03:38:34.161Z,8.78
2022-12-15T03:41:02.069Z,9.18
2022-12-15T03:43:30.162Z,9.15
2022-12-15T03:45:58.053Z,10.05
2022-12-15T03:48:25.915Z,9.85
2022-12-15T03:50:53.450Z,8.88
2022-12-15T03:53:21.164Z,8.75
2022-12-15T03:55:48.916Z,7.72
2022-12-15T03:58:16.726Z,8.13
2022-12-15T04:00:44.527Z,8.28
2022-12-15T04:03:12.672Z,7.37
2022-12-15T04:05:42.378Z,7.55
2022-12-15T04:08:11.123Z,8.70
2022-12-15T04:10:38.833Z,7.90
2022-12-15T04:13:09.480Z,8.05
2022-12-15T04:15:39.571Z,9.50
2022-12-15T04:18:09.928Z,10.30
2022-12-15T04:20:39.620Z,8.90
2022-12-15T04:23:08.193Z,9.08
2022-12-15T04:25:55.845Z,9.60
2022-12-15T04:28:42.908Z,9.45
2022-12-15T04:31:38.864Z,9.40
2022-12-15T04:34:29.482Z,9.38
2022-12-15T04:37:16.428Z,8.95
2022-12-15T04:40:06.962Z,9.73
2022-12-15T04:42:57.930Z,9.35
2022-12-15T04:45:44.414Z,10.50
2022-12-15T04:48:30.782Z,10.20
2022-12-15T04:51:17.229Z,10.50
2022-12-15T04:54:04.310Z,10.80
2022-12-15T04:56:50.923Z,9.50
2022-12-15T04:59:37.311Z,10.03
2022-12-15T05:02:23.902Z,10.70
2022-12-15T05:05:10.001Z,11.63
2022-12-15T05:10:41.981Z,11.35
2022-12-15T05:13:28.656Z,11.20
2022-12-15T05:16:15.355Z,11.75
2022-12-15T05:19:01.373Z,11.68
2022-12-15T05:21:47.729Z,11.68
2022-12-15T05:24:36.420Z,11.75
2022-12-15T05:27:22.954Z,17.32
2022-12-15T05:30:10.149Z,15.45
2022-12-15T05:32:38.425Z,15.35
2022-12-15T05:35:06.985Z,18.02
2022-12-15T05:37:34.756Z,18.85
2022-12-15T05:40:04.593Z,19.45
2022-12-15T05:42:33.593Z,17.37
2022-12-15T05:45:01.930Z,18.23
2022-12-15T05:47:30.354Z,21.62
2022-12-15T05:49:58.501Z,20.75
2022-12-15T05:52:26.550Z,17.10
2022-12-15T05:54:55.099Z,15.68
2022-12-15T05:57:23.956Z,16.97
2022-12-15T05:59:53.620Z,15.10
2022-12-15T06:02:21.963Z,14.80
2022-12-15T06:04:54.432Z,14.65
2022-12-15T06:07:22.818Z,14.87
2022-12-15T06:09:51.085Z,16.05
2022-12-15T06:12:18.973Z,16.40
2022-12-15T06:14:47.620Z,16.20
2022-12-15T06:17:22.713Z,15.18
2022-12-15T06:19:51.443Z,16.12
2022-12-15T06:22:20.095Z,15.93
2022-12-15T06:24:48.145Z,15.45
2022-12-15T06:27:16.979Z,19.27
2022-12-15T06:29:45.064Z,20.60
2022-12-15T06:32:14.361Z,18.02
2022-12-15T06:34:42.608Z,16.40
2022-12-15T06:37:10.840Z,18.35
2022-12-15T06:39:40.078Z,18.75
2022-12-15T06:42:09.280Z,20.30
2022-12-15T06:44:37.165Z,19.57
2022-12-15T06:47:05.230Z,20.23
2022-12-15T06:49:35.490Z,19.20
2022-12-15T06:52:13.287Z,20.05
2022-12-15T06:54:52.064Z,20.68
2022-12-15T06:57:23.061Z,25.37
2022-12-15T06:59:51.866Z,28.07
2022-12-15T07:02:26.906Z,31.05
2022-12-15T07:04:53.719Z,30.25
2022-12-15T07:07:22.671Z,29.95
2022-12-15T07:09:56.592Z,28.05
2022-12-15T07:12:27.923Z,29.15
2022-12-15T07:14:55.895Z,37.08
2022-12-15T07:17:23.850Z,32.38
2022-12-15T07:19:59.467Z,29.85
2022-12-15T07:22:29.050Z,30.30
2022-12-15T07:24:57.582Z,31.15
2022-12-15T07:27:25.648Z,25.57
2022-12-15T07:29:53.339Z,24.77
2022-12-15T07:32:21.228Z,25.75
2022-12-15T07:34:48.990Z,29.40
2022-12-15T07:37:17.778Z,28.45
2022-12-15T07:39:45.730Z,28.62
2022-12-15T07:42:13.379Z,24.90
2022-12-15T07:44:41.212Z,24.15
2022-12-15T07:47:09.335Z,24.72
2022-12-15T07:49:37.331Z,26.97
2022-12-15T07:52:05.853Z,29.75
2022-12-15T07:54:34.014Z,27.42
2022-12-15T07:57:02.319Z,27.58
2022-12-15T07:59:31.324Z,29.05
2022-12-15T08:02:00.453Z,22.98
2022-12-15T08:04:28.439Z,20.88
2022-12-15T08:06:57.570Z,21.55
2022-12-15T08:09:25.616Z,23.77
2022-12-15T08:11:53.483Z,21.37
2022-12-15T08:14:21.648Z,18.45
2022-12-15T08:16:51.950Z,19.73
2022-12-15T08:19:20.491Z,21.05
2022-12-15T08:21:48.615Z,24.05
2022-12-15T08:24:18.976Z,24.15
2022-12-15T08:26:50.448Z,37.65
2022-12-15T08:29:49.584Z,21.05
2022-12-15T08:31:48.015Z,17.10
2022-12-15T08:34:18.683Z,19.35
2022-12-15T08:36:46.339Z,18.80
2022-12-15T08:39:16.173Z,20.05
2022-12-15T08:41:47.931Z,20.17
2022-12-15T08:44:17.785Z,16.73
2022-12-15T08:46:45.804Z,19.45
2022-12-15T08:49:19.560Z,18.85
2022-12-15T08:51:43.387Z,18.82
2022-12-15T08:54:11.311Z,26.23
2022-12-15T08:56:40.249Z,26.42
2022-12-15T08:59:09.375Z,24.32
2022-12-15T09:01:39.986Z,22.05
2022-12-15T09:04:11.661Z,22.15
2022-12-15T09:06:40.338Z,22.13
2022-12-15T09:09:14.008Z,23.05
2022-12-15T09:11:45.183Z,22.65
2022-12-15T09:14:13.185Z,22.17
2022-12-15T09:16:41.021Z,21.95
2022-12-15T09:19:10.668Z,29.87
2022-12-15T09:21:39.720Z,31.30
2022-12-15T09:24:07.874Z,33.78
2022-12-15T09:26:35.963Z,29.52
2022-12-15T09:29:06.088Z,30.50
2022-12-15T09:31:37.934Z,26.93
2022-12-15T09:34:06.078Z,27.82
2022-12-15T09:36:34.569Z,29.02
2022-12-15T09:39:03.700Z,29.15
2022-12-15T09:41:35.011Z,28.32
2022-12-15T09:44:21.509Z,27.85
2022-12-15T09:47:11.075Z,28.80
2022-12-15T09:49:52.688Z,28.38
2022-12-15T09:52:28.872Z,29.70
2022-12-15T09:55:01.012Z,58.13
2022-12-15T09:57:55.026Z,51.00
2022-12-15T10:00:55.248Z,55.50
2022-12-15T10:03:59.527Z,37.93
2022-12-15T10:06:37.671Z,40.33
2022-12-15T10:09:23.399Z,38.23
2022-12-15T10:12:19.281Z,37.17
2022-12-15T10:15:04.563Z,34.75
2022-12-15T10:17:50.200Z,31.02
2022-12-15T10:20:28.605Z,30.62
2022-12-15T10:23:12.856Z,34.00
2022-12-15T10:26:02.162Z,27.17
2022-12-15T10:28:53.695Z,26.68
2022-12-15T10:31:48.100Z,54.63
2022-12-15T10:34:25.100Z,32.17
2022-12-15T10:37:01.568Z,31.60
2022-12-15T10:39:39.966Z,32.85
2022-12-15T10:42:22.969Z,32.70
2022-12-15T10:44:55.635Z,33.98
2022-12-15T10:47:31.019Z,30.08
2022-12-15T10:50:24.745Z,32.83
2022-12-15T10:52:50.237Z,36.70
2022-12-15T10:55:41.456Z,24.60
2022-12-15T10:58:23.306Z,25.60
2022-12-15T11:01:11.441Z,17.05
2022-12-15T11:03:40.803Z,12.88
2022-12-15T11:06:32.261Z,14.63
2022-12-15T11:09:25.399Z,13.35
2022-12-15T11:12:12.398Z,11.18
2022-12-15T11:14:52.501Z,50.50
2022-12-15T11:17:23.776Z,24.47
2022-12-15T11:20:09.197Z,29.32
2022-12-15T11:22:52.068Z,15.80
2022-12-15T11:25:58.081Z,16.70
2022-12-15T11:28:36.452Z,16.80
2022-12-15T11:31:09.617Z,15.45
2022-12-15T11:33:38.496Z,15.10
2022-12-15T11:36:32.499Z,13.25
2022-12-15T11:39:06.018Z,11.25
2022-12-15T11:41:54.313Z,11.73
2022-12-15T11:44:37.193Z,12.40
2022-12-15T11:47:25.112Z,12.18
2022-12-15T11:50:16.344Z,12.07
2022-12-15T11:53:10.010Z,11.97
2022-12-15T11:55:57.716Z,11.83
2022-12-15T11:58:56.806Z,18.25
2022-12-15T12:04:32.443Z,10.68
2022-12-15T12:07:44.432Z,9.58
2022-12-15T12:10:49.089Z,10.40
2022-12-15T12:13:28.308Z,10.68
2022-12-15T12:16:58.911Z,10.60
2022-12-15T12:19:38.371Z,11.88
2022-12-15T12:22:23.568Z,12.88
2022-12-15T12:25:01.379Z,13.62
2022-12-15T12:27:43.506Z,14.03
2022-12-15T12:30:18.690Z,14.43
2022-12-15T12:32:54.802Z,15.35
2022-12-15T12:35:49.153Z,14.18
2022-12-15T12:38:22.882Z,16.60
2022-12-15T12:41:11.707Z,16.37
2022-12-15T12:43:44.932Z,15.45
2022-12-15T12:48:56.954Z,15.98
2022-12-15T12:51:34.968Z,18.40
2022-12-15T12:54:07.110Z,19.50
2022-12-15T12:56:44.048Z,18.80
2022-12-15T12:59:35.876Z,19.57
2022-12-15T13:02:25.899Z,18.37
2022-12-15T13:05:07.102Z,21.85
2022-12-15T13:07:43.171Z,20.77
2022-12-15T13:10:20.925Z,19.20
2022-12-15T13:12:59.692Z,18.75
2022-12-15T13:15:34.046Z,36.25
2022-12-15T13:18:19.212Z,23.42
2022-12-15T13:20:50.502Z,26.52
2022-12-15T13:23:27.112Z,20.60
2022-12-15T13:26:03.592Z,17.67
2022-12-15T13:28:44.229Z,23.80
2022-12-15T13:31:22.198Z,19.35
2022-12-15T13:34:00.269Z,17.37
2022-12-15T13:36:50.652Z,18.10
2022-12-15T13:39:29.047Z,18.82
2022-12-15T13:44:48.895Z,19.02
2022-12-15T13:47:23.036Z,19.32
2022-12-15T13:50:08.314Z,21.73
2022-12-15T13:53:18.440Z,23.15
2022-12-15T13:55:30.444Z,26.27
2022-12-15T13:58:15.631Z,22.85
2022-12-15T14:00:53.990Z,23.38
2022-12-15T14:03:23.033Z,24.40
2022-12-15T14:08:31.349Z,23.80
2022-12-15T14:11:16.464Z,25.30
2022-12-15T14:13:37.295Z,25.70
2022-12-15T14:16:18.868Z,27.50
2022-12-15T14:19:16.968Z,26.20
2022-12-15T14:21:59.041Z,30.57
2022-12-15T14:24:40.821Z,30.10
2022-12-15T14:27:05.406Z,28.02
2022-12-15T14:29:36.004Z,27.75
2022-12-15T14:32:04.599Z,28.47
2022-12-15T14:34:39.562Z,27.77
2022-12-15T14:37:11.357Z,27.35
2022-12-15T14:39:47.257Z,26.30
2022-12-15T14:42:21.563Z,25.52
2022-12-15T14:44:50.662Z,34.25
2022-12-15T14:47:26.210Z,36.63
2022-12-15T14:49:59.062Z,42.38
2022-12-15T14:52:41.365Z,54.05
2022-12-15T14:55:39.900Z,54.60
2022-12-15T14:58:29.457Z,30.12
2022-12-15T15:00:59.245Z,27.65
2022-12-15T15:03:10.218Z,10.15
2022-12-15T15:03:40.405Z,28.30
2022-12-15T15:06:16.818Z,29.15
2022-12-15T15:08:50.613Z,28.47
2022-12-15T15:11:36.946Z,28.95
2022-12-15T15:14:15.297Z,28.10
2022-12-15T15:16:44.196Z,31.77
2022-12-15T15:19:20.040Z,32.35
2022-12-15T15:21:50.787Z,32.95
2022-12-15T15:24:32.259Z,32.38
2022-12-15T15:27:25.909Z,33.25
2022-12-15T15:29:59.272Z,33.40
2022-12-15T15:32:27.046Z,32.05
2022-12-15T15:34:54.880Z,33.73
2022-12-15T15:37:25.858Z,34.92
2022-12-15T15:39:54.859Z,34.13
2022-12-15T15:42:26.565Z,32.90
2022-12-15T15:44:52.514Z,35.13
2022-12-15T15:47:25.603Z,40.55
2022-12-15T15:49:57.862Z,38.00
2022-12-15T15:52:28.313Z,34.80
2022-12-15T15:54:56.513Z,35.60
2022-12-15T15:57:24.197Z,36.83
2022-12-15T15:59:52.677Z,37.03
2022-12-15T16:02:22.228Z,37.20
2022-12-15T16:04:53.331Z,48.23
2022-12-15T16:07:27.737Z,47.08
2022-12-15T16:10:01.908Z,38.78
2022-12-15T16:12:45.472Z,46.10
2022-12-15T16:15:17.151Z,40.00
2022-12-15T16:17:46.549Z,39.42
2022-12-15T16:20:18.274Z,34.80
2022-12-15T16:22:50.858Z,39.23
2022-12-15T16:25:50.117Z,38.75
2022-12-15T16:28:22.727Z,47.25
2022-12-15T16:30:53.673Z,49.63
2022-12-15T16:33:34.171Z,52.43
2022-12-15T16:36:04.854Z,50.78
2022-12-15T16:38:35.386Z,57.53
2022-12-15T16:41:11.971Z,56.68
2022-12-15T16:43:46.028Z,55.38
2022-12-15T16:46:13.607Z,55.52
2022-12-15T16:48:42.921Z,58.95
2022-12-15T16:51:22.159Z,60.78
2022-12-15T16:53:50.178Z,57.00
2022-12-15T16:56:18.231Z,57.08
2022-12-15T16:58:48.991Z,54.05
2022-12-15T17:01:16.838Z,53.45
2022-12-15T17:03:47.725Z,52.73
2022-12-15T17:06:17.271Z,54.98
2022-12-15T17:08:52.188Z,57.38
2022-12-15T17:11:25.697Z,54.55
2022-12-15T17:13:57.323Z,57.20
2022-12-15T17:16:27.853Z,56.55
2022-12-15T17:18:55.886Z,61.15
2022-12-15T17:21:32.216Z,58.20
2022-12-15T17:24:07.745Z,56.90
2022-12-15T17:29:23.767Z,61.55
2022-12-15T17:31:51.901Z,72.08
2022-12-15T17:34:32.207Z,77.25
2022-12-15T17:37:04.933Z,87.95
2022-12-15T17:39:34.823Z,83.27
2022-12-15T17:42:03.438Z,91.05
2022-12-15T17:44:37.297Z,78.20
2022-12-15T17:47:07.615Z,80.20
2022-12-15T17:49:38.702Z,80.92
2022-12-15T17:52:32.551Z,83.35
2022-12-15T17:55:01.830Z,92.72
2022-12-15T17:57:31.428Z,84.50
2022-12-15T18:00:01.388Z,94.52
2022-12-15T18:02:29.346Z,80.62
2022-12-15T18:04:57.245Z,72.82
2022-12-15T18:07:24.867Z,99.15
2022-12-15T18:09:53.013Z,144.90
2022-12-15T18:12:25.708Z,139.37
2022-12-15T18:14:54.797Z,101.78
2022-12-15T18:17:22.878Z,101.00
2022-12-15T18:19:50.581Z,102.55
2022-12-15T18:22:23.016Z,94.77
2022-12-15T18:24:53.151Z,93.60
2022-12-15T18:27:25.705Z,99.92
2022-12-15T18:29:54.600Z,86.25
2022-12-15T18:32:25.973Z,80.38
2022-12-15T18:34:54.446Z,83.45
2022-12-15T18:37:24.245Z,80.77
2022-12-15T18:39:53.039Z,75.50
2022-12-15T18:42:22.420Z,75.70
2022-12-15T18:44:56.046Z,90.12
2022-12-15T18:47:25.537Z,81.50
2022-12-15T18:49:53.158Z,84.30
2022-12-15T18:52:23.815Z,82.27
2022-12-15T18:54:53.583Z,58.30
2022-12-15T18:57:35.346Z,60.80
2022-12-15T19:00:20.845Z,59.25
2022-12-15T19:02:48.454Z,61.50
2022-12-15T19:05:27.940Z,65.20
2022-12-15T19:08:10.428Z,67.50
2022-12-15T19:10:43.805Z,71.17
2022-12-15T19:13:16.441Z,68.12
2022-12-15T19:15:44.959Z,64.05
2022-12-15T19:18:41.051Z,59.50
2022-12-15T19:21:54.780Z,54.38
2022-12-15T19:24:44.736Z,54.33
2022-12-15T19:27:29.640Z,51.80
2022-12-15T19:29:59.657Z,48.98
2022-12-15T19:32:30.868Z,48.83
2022-12-15T19:35:00.289Z,45.98
2022-12-15T19:37:31.149Z,45.10
2022-12-15T19:40:00.630Z,46.20
2022-12-15T19:42:33.449Z,50.38
2022-12-15T19:45:04.393Z,56.13
2022-12-15T19:47:32.871Z,56.20
2022-12-15T19:50:02.237Z,57.15
2022-12-15T19:52:31.129Z,55.78
2022-12-15T19:54:59.379Z,52.80
2022-12-15T19:57:28.011Z,56.48
2022-12-15T19:59:55.827Z,56.00
2022-12-15T20:02:24.660Z,55.20
2022-12-15T20:04:52.927Z,56.00
2022-12-15T20:07:26.962Z,62.60
2022-12-15T20:09:57.488Z,62.73
2022-12-15T20:12:26.119Z,58.52
2022-12-15T20:14:53.922Z,52.73
2022-12-15T20:17:21.902Z,48.78
2022-12-15T20:19:49.612Z,44.60
2022-12-15T20:22:21.221Z,41.53
2022-12-15T20:24:49.287Z,43.30
2022-12-15T20:27:19.443Z,41.70
2022-12-15T20:29:50.662Z,42.98
2022-12-15T20:32:22.038Z,47.00
2022-12-15T20:34:49.850Z,54.55
2022-12-15T20:37:21.956Z,59.08
2022-12-15T20:39:55.542Z,50.43
2022-12-15T20:42:21.950Z,44.93
2022-12-15T20:44:49.768Z,46.75
2022-12-15T20:47:24.547Z,49.65
2022-12-15T20:49:54.828Z,41.10
2022-12-15T20:52:30.738Z,37.17
2022-12-15T20:54:58.535Z,32.88
2022-12-15T20:57:26.511Z,33.23
2022-12-15T20:59:54.866Z,35.58
2022-12-15T21:02:29.394Z,35.70
2022-12-15T21:05:06.122Z,38.02
2022-12-15T21:07:35.300Z,35.52
2022-12-15T21:10:04.630Z,33.05
2022-12-15T21:12:34.670Z,33.02
2022-12-15T21:15:02.741Z,33.18
2022-12-15T21:17:31.035Z,33.05
2022-12-15T21:19:58.669Z,33.05
2022-12-15T21:22:28.060Z,30.65
2022-12-15T21:24:59.988Z,31.35
2022-12-15T21:27:28.362Z,29.27
2022-12-15T21:29:56.239Z,30.32
2022-12-15T21:32:23.748Z,31.68
2022-12-15T21:34:53.501Z,32.00
2022-12-15T21:37:28.529Z,30.15
2022-12-15T21:40:01.501Z,32.75
2022-12-15T21:42:31.563Z,31.70
2022-12-15T21:45:00.594Z,32.28
2022-12-15T21:47:49.540Z,34.03
2022-12-15T21:50:18.673Z,42.88
2022-12-15T21:52:47.790Z,43.08
2022-12-15T21:55:22.551Z,42.45
2022-12-15T21:57:50.406Z,41.13
2022-12-15T22:00:20.817Z,39.83
2022-12-15T22:02:52.052Z,40.55
2022-12-15T22:05:32.069Z,47.55
2022-12-15T22:08:13.967Z,53.33
2022-12-15T22:10:42.471Z,50.20
2022-12-15T22:13:15.859Z,51.55
2022-12-15T22:15:43.705Z,51.60
2022-12-15T22:18:15.520Z,51.18
2022-12-15T22:20:45.097Z,50.38
2022-12-15T22:23:13.148Z,52.35
2022-12-15T22:25:41.118Z,52.40
2022-12-15T22:28:22.965Z,54.93
2022-12-15T22:30:52.210Z,50.28
2022-12-15T22:33:25.791Z,51.77
2022-12-15T22:35:56.161Z,52.10
2022-12-15T22:38:24.567Z,63.70
2022-12-15T22:40:56.614Z,57.50
2022-12-15T22:43:42.646Z,56.88
2022-12-15T22:46:14.110Z,55.30
2022-12-15T22:48:45.192Z,56.45
2022-12-15T22:51:15.367Z,53.55
2022-12-15T22:53:43.711Z,50.05
2022-12-15T22:56:29.106Z,48.55
2022-12-15T22:59:01.493Z,47.58
2022-12-15T23:01:30.056Z,49.88
2022-12-15T23:03:58.171Z,55.88
2022-12-15T23:06:28.086Z,54.98
2022-12-15T23:08:56.456Z,49.42
2022-12-15T23:11:40.803Z,46.58
2022-12-15T23:14:14.466Z,42.48
2022-12-15T23:16:45.109Z,53.73
2022-12-15T23:19:14.817Z,53.55
2022-12-15T23:21:42.411Z,53.35
2022-12-15T23:24:10.006Z,50.23
2022-12-15T23:26:37.656Z,52.62
2022-12-15T23:29:07.594Z,47.30
2022-12-15T23:31:35.099Z,46.75
2022-12-15T23:34:02.966Z,46.88
2022-12-15T23:36:30.669Z,48.55
2022-12-15T23:39:01.095Z,47.05
2022-12-15T23:41:29.040Z,50.85
2022-12-15T23:43:56.910Z,50.20
2022-12-15T23:46:24.746Z,49.93
2022-12-15T23:48:52.407Z,52.70
2022-12-15T23:51:20.806Z,52.53
2022-12-15T23:53:48.698Z,50.40
2022-12-15T23:56:21.068Z,55.20
2022-12-15T23:58:58.176Z,55.52
